createdAt,value
2024-02-01T00:02:28.635Z,96.39
2024-02-01T00:05:31.462Z,96.35
2024-02-01T00:08:34.226Z,96.63
2024-02-01T00:11:37.018Z,96.87
2024-02-01T00:14:39.745Z,96.90
2024-02-01T00:17:43.729Z,96.78
2024-02-01T00:20:46.437Z,97.24
2024-02-01T00:23:49.097Z,97.41
2024-02-01T00:26:51.695Z,97.58
2024-02-01T00:29:54.328Z,97.82
2024-02-01T00:32:58.555Z,97.90
2024-02-01T00:36:01.428Z,97.84
2024-02-01T00:39:04.194Z,98.04
2024-02-01T00:42:07.068Z,98.25
2024-02-01T00:45:10.156Z,98.29
2024-02-01T00:48:14.583Z,98.25
2024-02-01T00:51:17.365Z,98.03
2024-02-01T00:54:20.017Z,98.43
2024-02-01T00:57:22.590Z,98.39
2024-02-01T01:00:25.554Z,98.51
2024-02-01T01:03:29.603Z,98.25
2024-02-01T01:06:32.228Z,98.37
2024-02-01T01:09:34.875Z,98.36
2024-02-01T01:12:37.546Z,98.65
2024-02-01T01:15:40.134Z,98.97
2024-02-01T01:18:44.232Z,98.36
2024-02-01T01:21:46.917Z,98.56
2024-02-01T01:24:49.552Z,98.67
2024-02-01T01:27:52.258Z,98.67
2024-02-01T01:30:54.934Z,97.97
2024-02-01T01:33:59.027Z,98.40
2024-02-01T01:37:01.687Z,98.45
2024-02-01T01:40:05.178Z,98.21
2024-02-01T01:43:07.766Z,98.00
2024-02-01T01:46:10.394Z,98.17
2024-02-01T01:49:14.634Z,98.10
2024-02-01T01:52:17.443Z,97.57
2024-02-01T01:55:20.109Z,98.08
2024-02-01T01:58:22.705Z,97.87
2024-02-01T02:01:25.847Z,97.63
2024-02-01T02:04:29.835Z,97.66
2024-02-01T02:07:32.503Z,97.69
2024-02-01T02:10:36.666Z,97.31
2024-02-01T02:13:39.474Z,97.36
2024-02-01T02:16:42.267Z,96.95
2024-02-01T02:19:47.215Z,97.08
2024-02-01T02:22:54.047Z,96.64
2024-02-01T02:25:56.854Z,96.38
2024-02-01T02:28:59.506Z,96.15
2024-02-01T02:32:02.151Z,95.95
2024-02-01T02:35:05.345Z,95.87
2024-02-01T02:38:09.319Z,95.10
2024-02-01T02:41:11.937Z,94.93
2024-02-01T02:44:14.752Z,94.38
2024-02-01T02:47:17.345Z,94.21
2024-02-01T02:50:20.113Z,93.82
2024-02-01T02:53:24.090Z,93.48
2024-02-01T02:56:26.696Z,93.14
2024-02-01T02:59:29.346Z,92.88
2024-02-01T03:02:31.975Z,92.69
2024-02-01T03:05:34.626Z,92.40
2024-02-01T03:08:40.381Z,92.10
2024-02-01T03:11:42.960Z,91.79
2024-02-01T03:14:47.824Z,91.42
2024-02-01T03:17:50.986Z,91.15
2024-02-01T03:20:56.669Z,90.81
2024-02-01T03:24:02.194Z,90.20
2024-02-01T03:27:13.047Z,89.97
2024-02-01T03:30:16.633Z,89.22
2024-02-01T03:33:21.442Z,88.65
2024-02-01T03:36:24.512Z,88.26
2024-02-01T03:39:30.555Z,88.03
2024-02-01T03:42:33.643Z,87.36
2024-02-01T03:45:36.331Z,87.08
2024-02-01T03:48:39.091Z,86.64
2024-02-01T03:51:41.781Z,85.87
2024-02-01T03:54:45.767Z,85.84
2024-02-01T03:57:48.668Z,85.39
2024-02-01T04:00:52.062Z,85.07
2024-02-01T04:03:54.884Z,84.81
2024-02-01T04:06:57.545Z,84.43
2024-02-01T04:10:01.587Z,83.68
2024-02-01T04:13:06.514Z,83.63
2024-02-01T04:16:09.116Z,83.51
2024-02-01T04:19:14.246Z,82.93
2024-02-01T04:22:16.940Z,82.89
2024-02-01T04:25:21.266Z,82.60
2024-02-01T04:28:23.936Z,82.38
2024-02-01T04:31:26.620Z,81.90
2024-02-01T04:34:29.411Z,82.16
2024-02-01T04:37:33.298Z,81.71
2024-02-01T04:40:37.357Z,81.49
2024-02-01T04:43:41.630Z,81.43
2024-02-01T04:46:44.284Z,81.09
2024-02-01T04:49:49.799Z,80.77
2024-02-01T04:52:52.760Z,80.80
2024-02-01T04:55:56.752Z,80.89
2024-02-01T04:58:59.396Z,80.30
2024-02-01T05:02:05.589Z,80.21
2024-02-01T05:05:09.029Z,80.04
2024-02-01T05:08:11.611Z,80.55
2024-02-01T05:11:15.613Z,80.34
2024-02-01T05:14:18.226Z,79.95
2024-02-01T05:17:20.803Z,80.35
2024-02-01T05:20:23.447Z,79.80
2024-02-01T05:23:26.059Z,79.72
2024-02-01T05:26:30.043Z,79.67
2024-02-01T05:29:32.757Z,79.78
2024-02-01T05:32:35.554Z,79.74
2024-02-01T05:35:38.360Z,79.57
2024-02-01T05:38:41.051Z,79.59
2024-02-01T05:41:45.021Z,79.25
2024-02-01T05:44:47.661Z,79.33
2024-02-01T05:47:52.665Z,79.14
2024-02-01T05:50:55.709Z,78.94
2024-02-01T05:53:59.722Z,79.27
2024-02-01T05:57:05.187Z,78.75
2024-02-01T06:00:11.205Z,78.74
2024-02-01T06:03:14.067Z,78.79
2024-02-01T06:06:16.861Z,78.88
2024-02-01T06:09:19.575Z,78.28
2024-02-01T06:12:23.645Z,78.45
2024-02-01T06:15:26.377Z,78.40
2024-02-01T06:18:29.162Z,77.84
2024-02-01T06:21:33.030Z,78.24
2024-02-01T06:24:36.394Z,78.23
2024-02-01T06:27:40.372Z,78.25
2024-02-01T06:30:43.691Z,77.95
2024-02-01T06:33:46.367Z,78.24
2024-02-01T06:36:54.434Z,77.99
2024-02-01T06:40:14.380Z,77.90
2024-02-01T06:43:29.143Z,77.52
2024-02-01T06:46:50.703Z,77.57
2024-02-01T06:50:04.492Z,77.65
2024-02-01T06:53:20.208Z,77.58
2024-02-01T06:56:39.726Z,77.63
2024-02-01T06:59:55.588Z,77.68
2024-02-01T07:03:04.110Z,77.91
2024-02-01T07:06:26.315Z,77.72
2024-02-01T07:09:38.100Z,77.67
2024-02-01T07:12:45.167Z,77.92
2024-02-01T07:15:49.542Z,78.00
2024-02-01T07:19:11.666Z,77.53
2024-02-01T07:22:33.937Z,78.21
2024-02-01T07:25:48.167Z,78.29
2024-02-01T07:29:07.573Z,77.85
2024-02-01T07:32:28.424Z,78.31
2024-02-01T07:35:48.756Z,78.02
2024-02-01T07:39:08.923Z,78.33
2024-02-01T07:42:29.294Z,78.55
2024-02-01T07:45:54.909Z,78.40
2024-02-01T07:49:16.835Z,78.14
2024-02-01T07:52:37.027Z,78.16
2024-02-01T07:55:57.443Z,78.39
2024-02-01T07:59:08.958Z,78.66
2024-02-01T08:02:25.306Z,78.72
2024-02-01T08:05:49.193Z,78.93
2024-02-01T08:08:52.574Z,78.78
2024-02-01T08:11:55.247Z,78.96
2024-02-01T08:14:57.903Z,79.07
2024-02-01T08:18:00.697Z,78.79
2024-02-01T08:21:06.224Z,79.29
2024-02-01T08:24:10.799Z,79.47
2024-02-01T08:27:15.892Z,78.99
2024-02-01T08:30:21.078Z,78.98
2024-02-01T08:33:24.812Z,79.28
2024-02-01T08:36:28.927Z,79.26
2024-02-01T08:39:33.846Z,79.37
2024-02-01T08:42:36.556Z,79.36
2024-02-01T08:45:41.202Z,80.18
2024-02-01T08:48:46.159Z,80.31
2024-02-01T08:51:50.320Z,80.04
2024-02-01T08:54:53.175Z,79.94
2024-02-01T08:57:56.371Z,80.32
2024-02-01T09:00:59.143Z,79.84
2024-02-01T09:04:01.913Z,79.67
2024-02-01T09:07:06.271Z,79.11
2024-02-01T09:10:18.511Z,79.16
2024-02-01T09:13:23.972Z,78.84
2024-02-01T09:16:32.252Z,78.89
2024-02-01T09:19:35.384Z,78.34
2024-02-01T09:22:39.397Z,77.76
2024-02-01T09:25:42.719Z,77.91
2024-02-01T09:28:46.161Z,77.27
2024-02-01T09:31:48.982Z,77.14
2024-02-01T09:34:53.820Z,77.09
2024-02-01T09:37:58.205Z,76.74
2024-02-01T09:41:00.917Z,76.70
2024-02-01T09:44:08.143Z,76.09
2024-02-01T09:47:10.999Z,75.58
2024-02-01T09:50:14.461Z,75.39
2024-02-01T09:53:22.166Z,75.26
2024-02-01T09:56:26.884Z,74.88
2024-02-01T09:59:36.939Z,74.20
2024-02-01T10:02:40.348Z,74.03
2024-02-01T10:05:43.532Z,74.26
2024-02-01T10:08:49.545Z,73.83
2024-02-01T10:11:52.895Z,73.61
2024-02-01T10:14:55.793Z,73.16
2024-02-01T10:17:59.852Z,71.73
2024-02-01T10:21:25.117Z,71.15
2024-02-01T10:24:31.647Z,71.87
2024-02-01T10:27:34.436Z,70.44
2024-02-01T10:30:40.833Z,70.20
2024-02-01T10:33:43.645Z,69.06
2024-02-01T10:36:46.465Z,68.88
2024-02-01T10:39:55.939Z,67.92
2024-02-01T10:42:59.905Z,67.28
2024-02-01T10:46:07.990Z,66.42
2024-02-01T10:49:19.041Z,66.65
2024-02-01T10:52:22.637Z,66.59
2024-02-01T10:55:27.793Z,66.01
2024-02-01T10:58:30.448Z,66.10
2024-02-01T11:01:33.114Z,65.14
2024-02-01T11:04:36.768Z,64.80
2024-02-01T11:07:39.420Z,64.07
2024-02-01T11:10:45.525Z,64.18
2024-02-01T11:13:49.792Z,63.88
2024-02-01T11:16:53.553Z,63.45
2024-02-01T11:19:57.443Z,63.38
2024-02-01T11:23:00.606Z,62.89
2024-02-01T11:26:08.620Z,62.15
2024-02-01T11:29:11.784Z,62.23
2024-02-01T11:32:17.872Z,61.75
2024-02-01T11:35:21.322Z,61.77
2024-02-01T11:38:23.986Z,61.63
2024-02-01T11:41:29.265Z,61.73
2024-02-01T11:44:31.950Z,61.43
2024-02-01T11:47:35.378Z,61.40
2024-02-01T11:50:38.301Z,61.55
2024-02-01T11:53:41.003Z,61.30
2024-02-01T11:56:45.646Z,60.98
2024-02-01T11:59:48.465Z,61.18
2024-02-01T12:02:51.124Z,60.94
2024-02-01T12:05:54.250Z,60.46
2024-02-01T12:09:00.760Z,60.26
2024-02-01T12:12:06.031Z,60.30
2024-02-01T12:15:09.843Z,60.07
2024-02-01T12:18:13.472Z,60.09
2024-02-01T12:21:27.699Z,60.19
2024-02-01T12:24:32.356Z,59.45
2024-02-01T12:27:36.348Z,59.64
2024-02-01T12:30:43.190Z,59.66
2024-02-01T12:33:46.732Z,59.64
2024-02-01T12:36:50.061Z,60.06
2024-02-01T12:39:55.028Z,59.54
2024-02-01T12:43:02.643Z,59.88
2024-02-01T12:46:05.551Z,59.24
2024-02-01T12:49:09.122Z,59.56
2024-02-01T12:52:11.869Z,59.20
2024-02-01T12:55:18.109Z,58.98
2024-02-01T12:58:22.601Z,59.51
2024-02-01T13:01:27.501Z,59.24
2024-02-01T13:04:30.293Z,58.70
2024-02-01T13:07:32.985Z,58.83
2024-02-01T13:10:40.049Z,58.78
2024-02-01T13:13:44.208Z,58.86
2024-02-01T13:16:48.640Z,58.46
2024-02-01T13:19:51.394Z,58.29
2024-02-01T13:22:54.835Z,57.54
2024-02-01T13:25:57.506Z,57.53
2024-02-01T13:29:01.496Z,57.32
2024-02-01T13:32:09.199Z,57.27
2024-02-01T13:35:11.911Z,57.08
2024-02-01T13:38:14.657Z,57.54
2024-02-01T13:41:17.313Z,57.41
2024-02-01T13:44:24.333Z,56.85
2024-02-01T13:47:27.062Z,56.91
2024-02-01T13:50:29.790Z,56.88
2024-02-01T13:53:33.164Z,57.06
2024-02-01T13:56:35.794Z,56.82
2024-02-01T13:59:39.858Z,56.89
2024-02-01T14:02:42.976Z,56.79
2024-02-01T14:05:45.742Z,57.00
2024-02-01T14:08:48.449Z,56.58
2024-02-01T14:11:51.194Z,56.47
2024-02-01T14:14:55.354Z,56.36
2024-02-01T14:17:58.348Z,56.11
2024-02-01T14:21:03.016Z,56.24
2024-02-01T14:24:06.171Z,56.29
2024-02-01T14:27:08.986Z,56.52
2024-02-01T14:30:18.053Z,56.59
2024-02-01T14:33:22.469Z,56.64
2024-02-01T14:36:25.410Z,57.04
2024-02-01T14:39:29.430Z,56.85
2024-02-01T14:42:32.128Z,57.02
2024-02-01T14:45:36.204Z,57.03
2024-02-01T14:48:39.138Z,57.02
2024-02-01T14:51:41.922Z,56.93
2024-02-01T14:54:45.726Z,56.78
2024-02-01T14:57:48.409Z,57.17
2024-02-01T15:00:52.681Z,57.42
2024-02-01T15:03:55.800Z,57.29
2024-02-01T15:06:58.586Z,57.74
2024-02-01T15:10:01.373Z,57.93
2024-02-01T15:13:04.327Z,58.23
2024-02-01T15:16:11.528Z,58.47
2024-02-01T15:19:16.252Z,58.11
2024-02-01T15:22:18.951Z,58.36
2024-02-01T15:25:21.629Z,58.48
2024-02-01T15:28:24.314Z,58.59
2024-02-01T15:31:28.408Z,58.86
2024-02-01T15:34:31.870Z,58.91
2024-02-01T15:37:34.667Z,59.09
2024-02-01T15:40:37.315Z,59.26
2024-02-01T15:43:40.106Z,59.63
2024-02-01T15:46:44.315Z,60.34
2024-02-01T15:49:47.570Z,60.25
2024-02-01T15:52:51.335Z,60.60
2024-02-01T15:55:55.477Z,60.77
2024-02-01T15:58:58.158Z,61.50
2024-02-01T16:02:02.159Z,61.10
2024-02-01T16:05:05.270Z,61.85
2024-02-01T16:08:08.197Z,62.19
2024-02-01T16:11:11.951Z,61.51
2024-02-01T16:14:20.848Z,62.31
2024-02-01T16:17:24.858Z,61.77
2024-02-01T16:20:40.876Z,61.96
2024-02-01T16:23:44.964Z,62.34
2024-02-01T16:26:47.630Z,62.51
2024-02-01T16:29:54.449Z,62.54
2024-02-01T16:32:58.663Z,63.01
2024-02-01T16:36:08.041Z,63.75
2024-02-01T16:39:15.886Z,63.20
2024-02-01T16:42:33.216Z,63.77
2024-02-01T16:45:35.908Z,63.94
2024-02-01T16:48:40.090Z,64.50
2024-02-01T16:51:43.685Z,64.35
2024-02-01T16:54:46.384Z,64.43
2024-02-01T16:57:49.179Z,64.85
2024-02-01T17:00:54.370Z,64.75
2024-02-01T17:03:59.135Z,65.28
2024-02-01T17:07:03.217Z,65.21
2024-02-01T17:10:06.470Z,65.18
2024-02-01T17:13:09.277Z,65.12
2024-02-01T17:16:21.264Z,65.37
2024-02-01T17:19:25.400Z,65.88
2024-02-01T17:22:28.825Z,65.81
2024-02-01T17:25:56.370Z,66.42
2024-02-01T17:28:59.502Z,66.36
2024-02-01T17:32:02.222Z,66.40
2024-02-01T17:35:09.873Z,66.72
2024-02-01T17:38:13.654Z,67.08
2024-02-01T17:41:20.477Z,66.72
2024-02-01T17:44:33.564Z,67.02
2024-02-01T17:47:36.562Z,67.34
2024-02-01T17:50:45.157Z,67.19
2024-02-01T17:53:47.926Z,67.42
2024-02-01T17:56:51.690Z,67.42
2024-02-01T17:59:54.563Z,67.48
2024-02-01T18:03:00.202Z,67.59
2024-02-01T18:06:07.775Z,67.72
2024-02-01T18:09:12.760Z,67.93
2024-02-01T18:12:18.987Z,67.97
2024-02-01T18:15:57.276Z,68.24
2024-02-01T18:19:04.218Z,68.11
2024-02-01T18:22:08.687Z,68.27
2024-02-01T18:25:14.942Z,68.16
2024-02-01T18:28:20.239Z,68.53
2024-02-01T18:31:23.041Z,68.43
2024-02-01T18:34:26.393Z,68.70
2024-02-01T18:37:31.634Z,69.00
2024-02-01T18:40:36.390Z,68.84
2024-02-01T18:43:40.176Z,69.00
2024-02-01T18:46:46.538Z,68.96
2024-02-01T18:49:49.404Z,69.17
2024-02-01T18:52:53.609Z,69.29
2024-02-01T18:55:56.406Z,69.45
2024-02-01T18:59:00.243Z,69.65
2024-02-01T19:02:03.942Z,69.93
2024-02-01T19:05:07.297Z,69.75
2024-02-01T19:08:12.614Z,69.99
2024-02-01T19:11:15.453Z,70.12
2024-02-01T19:14:29.067Z,69.93
2024-02-01T19:17:35.756Z,70.32
2024-02-01T19:20:39.230Z,70.34
2024-02-01T19:23:43.483Z,70.68
2024-02-01T19:26:48.043Z,70.70
2024-02-01T19:29:50.940Z,70.74
2024-02-01T19:32:53.925Z,70.68
2024-02-01T19:35:56.797Z,70.79
2024-02-01T19:39:09.865Z,70.89
2024-02-01T19:42:12.822Z,71.03
2024-02-01T19:45:15.662Z,71.29
2024-02-01T19:48:19.846Z,71.66
2024-02-01T19:51:22.869Z,71.35
2024-02-01T19:54:27.120Z,71.54
2024-02-01T19:57:29.986Z,71.75
2024-02-01T20:00:32.995Z,71.76
2024-02-01T20:03:35.864Z,72.19
2024-02-01T20:06:38.744Z,72.28
2024-02-01T20:09:42.899Z,72.34
2024-02-01T20:12:46.208Z,72.31
2024-02-01T20:15:49.322Z,72.53
2024-02-01T20:18:52.874Z,72.50
2024-02-01T20:21:55.796Z,72.49
2024-02-01T20:25:00.169Z,73.33
2024-02-01T20:28:03.639Z,73.17
2024-02-01T20:31:06.722Z,73.12
2024-02-01T20:34:10.808Z,73.27
2024-02-01T20:37:13.780Z,73.35
2024-02-01T20:40:29.699Z,73.48
2024-02-01T20:43:32.466Z,73.19
2024-02-01T20:46:35.533Z,73.46
2024-02-01T20:49:38.315Z,74.06
2024-02-01T20:52:41.071Z,74.18
2024-02-01T20:55:47.129Z,74.12
2024-02-01T20:58:54.576Z,74.32
2024-02-01T21:01:59.240Z,74.75
2024-02-01T21:05:03.393Z,74.61
2024-02-01T21:08:08.203Z,75.23
2024-02-01T21:11:35.299Z,74.79
2024-02-01T21:14:44.660Z,75.41
2024-02-01T21:17:48.805Z,75.50
2024-02-01T21:20:52.102Z,75.81
2024-02-01T21:23:56.953Z,76.00
2024-02-01T21:27:01.136Z,76.54
2024-02-01T21:30:03.978Z,76.35
2024-02-01T21:33:12.640Z,76.41
2024-02-01T21:36:15.497Z,77.10
2024-02-01T21:39:23.961Z,77.48
2024-02-01T21:42:57.268Z,77.46
2024-02-01T21:46:00.684Z,77.72
2024-02-01T21:49:04.259Z,78.04
2024-02-01T21:52:07.753Z,77.95
2024-02-01T21:55:10.739Z,78.61
2024-02-01T21:58:15.140Z,78.25
2024-02-01T22:01:17.997Z,78.88
2024-02-01T22:04:20.836Z,78.92
2024-02-01T22:07:23.609Z,79.15
2024-02-01T22:10:26.388Z,79.23
2024-02-01T22:13:30.520Z,78.79
2024-02-01T22:16:33.790Z,79.43
2024-02-01T22:19:36.540Z,79.46
2024-02-01T22:22:40.933Z,79.22
2024-02-01T22:25:44.057Z,79.94
2024-02-01T22:28:48.104Z,79.96
2024-02-01T22:31:50.896Z,80.19
2024-02-01T22:34:53.777Z,80.36
2024-02-01T22:37:56.605Z,80.32
2024-02-01T22:40:59.808Z,80.10
2024-02-01T22:44:03.999Z,79.95
2024-02-01T22:47:07.070Z,79.98
2024-02-01T22:50:11.728Z,80.52
2024-02-01T22:53:14.507Z,80.58
2024-02-01T22:56:17.269Z,80.76
2024-02-01T22:59:21.333Z,80.61
2024-02-01T23:02:24.071Z,80.57
2024-02-01T23:05:26.808Z,80.81
2024-02-01T23:08:30.416Z,80.96
2024-02-01T23:11:33.132Z,80.86
2024-02-01T23:14:37.266Z,81.60
2024-02-01T23:17:40.014Z,81.54
2024-02-01T23:20:42.848Z,81.52
2024-02-01T23:23:46.053Z,81.97
2024-02-01T23:26:48.769Z,81.64
2024-02-01T23:29:53.034Z,81.95
2024-02-01T23:32:55.885Z,81.73
2024-02-01T23:35:58.739Z,81.69
2024-02-01T23:39:01.522Z,81.93
2024-02-01T23:42:04.562Z,82.21
2024-02-01T23:45:10.484Z,82.34
2024-02-01T23:48:13.406Z,82.23
2024-02-01T23:51:16.203Z,82.46
2024-02-01T23:54:19.182Z,82.47
2024-02-01T23:57:21.986Z,82.53
